ジャカルタ の空港の天気 - METARとTAF

スカルノハッタ国際空港 ( WIII / CGK ) - インドネシア バンテン州、Cengkareng ( ジャカルタ近郊)
飛行場実況気象(Metar)
観測時間02/28 03:30 WIB (02/27 20:30 UTC)
風向・風速南 2m/s
視程5000m
天気現象周辺で雷
少しの雲 雲底高度 550m
全天の8割程度の雲 雲底高度 610m
気温27℃
湿度89%
気圧1008hPa
METARWIII 272030Z 18003KT 5000 VCTS FEW018CB BKN020 27/25 Q1008 NOSIG RMK CB TO NW AND NE
過去の天気等 Google飛行場航空写真 Wunderground天気予報

過去48時間のMETAR

飛行場予報(TAF)
発表時間: 2/28 00:00 WIB (2/27 17:00 UTC)
予報対象時間: 28日1時 WIB ~ 1日7時 WIB
風向・風速不定 3m/s
視程5,000m
天気現象煙霧
全天の4割程度の雲 雲底高度 610m
28日2時 WIB ~ 28日6時 WIB に 確率 30% で一時的に
視程5,000m
天気現象雷雨
少しの積乱雲 雲底高度 580m
28日12時 WIB ~ 28日14時 WIB に徐々に
風向・風速西 5m/s
視程9,000m
少しの積乱雲 雲底高度 610m
全天の4割程度の雲 雲底高度 610m
TAF WIII 271700Z 2718/2824 VRB05KT 5000 HZ SCT020
PROB30 TEMPO 2719/2723 5000 TSRA FEW019CB 8ECMG 2801/2803 34010KT 8000 FEW020CB SCT020
BECMG 2805/2807 26010KT 9000 FEW020CB SCT020